Petersburg James A Johnson Airport
PAPG : now visible

Airfield :











YOU CAN JOIN US ON...

 
LOGIN :

Register | Disclaimer

   EN    FR    IT 

 









Legend :    VFR   Marginal VFR   IFR   Intensive IFR   Very Intensive IFR
Visi :
Ceiling :
>= 8 km
>= 3000ft
5 to 8 km
1000 to 3000 ft
1500m to 5 km
500 to 1000 ft
800 to 1500m
200 to 500 ft
< 800m
< 200 ft
Symbols :   Thunderstorms  Fog  Heavy snow  Heavy precipitations  Wind > 20 kt






- Airport Elevation : 111 ft
- IATA code : PSG


PAPG - Petersburg James A Johnson

CURRENT METAR :
  • 131456Z 00000KT 7SM SCT004 OVC013 12/12 A3020 RMK AO2 SLP229 60000 T01220122 53001

EXPIRED METARs :
  • 131356Z AUTO 00000KT 10SM BKN004 BKN023 OVC028 12/12 A3019 RMK AO2 SLP227 T01220117
  • 131354Z AUTO 00000KT 10SM BKN004 BKN023 OVC028 12/12 A3019 RMK AO2
  • 131343Z AUTO 00000KT 10SM SCT004 BKN023 OVC028 12/12 A3019 RMK AO2
  • 131319Z AUTO 00000KT 10SM BKN004 OVC027 12/12 A3020 RMK AO2
  • 131256Z AUTO 00000KT 10SM FEW004 BKN018 OVC025 12/12 A3019 RMK AO2 RAE50 SLP228 P0000 T01220117
  • 131239Z AUTO 00000KT 4SM -RA BR FEW004 OVC016 12/12 A3020 RMK AO2 P0000
  • 131156Z AUTO 00000KT 9SM -RA OVC018 12/12 A3020 RMK AO2 SLP229 P0000 60000 70020 T01220117 10133 20122 58000
  • 131056Z AUTO 26003KT 9SM -RA BKN018 OVC024 12/12 A3020 RMK AO2 RAB29 SLP230 P0000 T01220122

TAF PAPG
Valid from the 13 at 12:00 until the 14 at 12:00 UTC


131128Z 1312/1412 VRB03KT P6SM SCT010 BKN020 OVC030
TEMPO 1312/1316 4SM -RA BKN010
FM131900 VRB05KT P6SM VCSH OVC025
FM140100 VRB03KT 4SM -RA BR OVC015
FM140800 00000KT 6SM -RA BR OVC006 AMD LTD TO CLD VIS AND WIND 1312/1315
PAZA FIR / North America



MET'MAP, your aeronautical weather chart ! - Copyright ORBIFLY December 2007 - Disclaimer

ORBIFLY MET'MAP TEAM :

Programming & Development : Alexandra Zaïnal
Original concept : Baudouin d'Aumeries
Technical & hardware support : Manuel Goepfert
Assistance : Marc-Olivier Méhu




SOURCES & CREDITS :

   NOAA       Earth
Advisory